createdAt,value
2018-01-25T00:00:48.491Z,10.17
2018-01-25T00:01:48.482Z,10.14
2018-01-25T00:02:48.460Z,10.21
2018-01-25T00:03:48.440Z,10.18
2018-01-25T00:04:48.430Z,10.14
2018-01-25T00:05:48.403Z,10.10
2018-01-25T00:06:48.402Z,10.12
2018-01-25T00:07:48.370Z,10.09
2018-01-25T00:08:48.370Z,9.99
2018-01-25T00:09:48.342Z,10.18
2018-01-25T00:10:48.335Z,10.28
2018-01-25T00:11:48.325Z,10.19
2018-01-25T00:12:48.284Z,10.18
2018-01-25T00:13:48.265Z,10.07
2018-01-25T00:14:48.253Z,9.94
2018-01-25T00:15:48.237Z,9.86
2018-01-25T00:16:48.221Z,9.85
2018-01-25T00:17:48.208Z,10.07
2018-01-25T00:18:48.191Z,10.14
2018-01-25T00:19:48.163Z,10.12
2018-01-25T00:20:48.147Z,10.12
2018-01-25T00:21:48.141Z,10.12
2018-01-25T00:22:48.123Z,10.04
2018-01-25T00:23:48.099Z,10.18
2018-01-25T00:24:48.086Z,10.24
2018-01-25T00:25:48.066Z,10.19
2018-01-25T00:26:48.059Z,10.10
2018-01-25T00:27:48.028Z,10.14
2018-01-25T00:28:48.024Z,9.97
2018-01-25T00:29:48.005Z,9.78
2018-01-25T00:30:47.996Z,9.71
2018-01-25T00:31:47.973Z,9.73
2018-01-25T00:32:47.963Z,9.63
2018-01-25T00:33:47.937Z,9.88
2018-01-25T00:34:47.929Z,9.88
2018-01-25T00:35:47.900Z,9.88
2018-01-25T00:36:47.899Z,9.83
2018-01-25T00:37:47.865Z,9.78
2018-01-25T00:38:47.872Z,9.78
2018-01-25T00:39:47.846Z,9.67
2018-01-25T00:40:47.837Z,9.61
2018-01-25T00:41:47.801Z,9.63
2018-01-25T00:42:47.794Z,9.57
2018-01-25T00:43:47.785Z,9.53
2018-01-25T00:44:47.757Z,9.68
2018-01-25T00:45:47.750Z,9.73
2018-01-25T00:46:47.712Z,9.83
2018-01-25T00:47:47.718Z,9.70
2018-01-25T00:48:47.672Z,9.75
2018-01-25T00:49:47.663Z,9.70
2018-01-25T00:50:47.666Z,9.64
2018-01-25T00:51:47.631Z,9.71
2018-01-25T00:52:47.618Z,9.68
2018-01-25T00:53:47.597Z,9.76
2018-01-25T00:54:47.586Z,9.73
2018-01-25T00:55:47.557Z,9.82
2018-01-25T00:56:47.545Z,9.82
2018-01-25T00:57:47.519Z,9.85
2018-01-25T00:58:47.513Z,9.86
2018-01-25T00:59:47.487Z,9.86
2018-01-25T01:00:47.476Z,9.89
2018-01-25T01:01:47.453Z,9.81
2018-01-25T01:02:47.444Z,9.88
2018-01-25T01:03:47.428Z,9.83
2018-01-25T01:04:47.405Z,9.86
2018-01-25T01:05:47.392Z,9.78
2018-01-25T01:06:47.370Z,9.89
2018-01-25T01:07:47.358Z,9.86
2018-01-25T01:08:47.345Z,9.86
2018-01-25T01:09:47.329Z,9.83
2018-01-25T01:10:47.303Z,9.79
2018-01-25T01:11:47.294Z,9.81
2018-01-25T01:12:47.268Z,9.82
2018-01-25T01:13:47.281Z,9.71
2018-01-25T01:14:47.245Z,9.70
2018-01-25T01:15:47.233Z,9.64
2018-01-25T01:16:47.204Z,9.76
2018-01-25T01:17:47.191Z,9.76
2018-01-25T01:18:47.169Z,9.79
2018-01-25T01:19:47.149Z,9.75
2018-01-25T01:20:47.130Z,9.79
2018-01-25T01:21:47.127Z,9.78
2018-01-25T01:22:47.124Z,9.76
2018-01-25T01:23:47.082Z,9.86
2018-01-25T01:24:47.063Z,10.03
2018-01-25T01:25:47.066Z,10.01
2018-01-25T01:26:47.040Z,9.99
2018-01-25T01:27:47.047Z,10.03
2018-01-25T01:28:47.005Z,10.00
2018-01-25T01:29:46.986Z,9.99
2018-01-25T01:30:46.980Z,10.04
2018-01-25T01:31:46.944Z,10.01
2018-01-25T01:32:46.928Z,10.03
2018-01-25T01:33:46.915Z,9.89
2018-01-25T01:34:46.892Z,9.99
2018-01-25T01:35:46.870Z,9.99
2018-01-25T01:36:46.857Z,9.89
2018-01-25T01:37:46.844Z,9.83
2018-01-25T01:38:46.838Z,9.86
2018-01-25T01:39:46.818Z,9.83
2018-01-25T01:40:46.812Z,9.79
2018-01-25T01:41:46.780Z,9.79
2018-01-25T01:42:46.777Z,9.79
2018-01-25T01:43:46.739Z,9.58
2018-01-25T01:44:46.736Z,9.75
2018-01-25T01:45:46.703Z,9.78
2018-01-25T01:46:46.694Z,9.88
2018-01-25T01:47:46.676Z,10.06
2018-01-25T01:48:46.658Z,10.04
2018-01-25T01:49:46.642Z,10.03
2018-01-25T01:50:46.624Z,9.99
2018-01-25T01:51:46.609Z,10.00
2018-01-25T01:52:46.593Z,10.00
2018-01-25T01:53:46.590Z,10.01
2018-01-25T01:54:46.545Z,9.99
2018-01-25T01:55:46.548Z,10.01
2018-01-25T01:56:46.526Z,10.06
2018-01-25T01:57:46.507Z,9.97
2018-01-25T01:58:46.488Z,9.99
2018-01-25T01:59:46.467Z,9.94
2018-01-25T02:00:46.475Z,9.82
2018-01-25T02:01:46.457Z,10.00
2018-01-25T02:02:46.443Z,10.01
2018-01-25T02:03:46.408Z,10.03
2018-01-25T02:04:46.389Z,10.07
2018-01-25T02:05:46.382Z,10.10
2018-01-25T02:06:46.372Z,10.10
2018-01-25T02:07:46.330Z,10.04
2018-01-25T02:08:46.309Z,9.97
2018-01-25T02:09:46.299Z,10.04
2018-01-25T02:10:46.312Z,9.94
2018-01-25T02:11:46.267Z,9.99
2018-01-25T02:12:46.251Z,10.04
2018-01-25T02:13:46.232Z,9.94
2018-01-25T02:14:46.238Z,9.85
2018-01-25T02:15:46.204Z,9.91
2018-01-25T02:16:46.181Z,10.01
2018-01-25T02:17:46.165Z,9.93
2018-01-25T02:18:46.146Z,9.86
2018-01-25T02:19:46.136Z,9.82
2018-01-25T02:20:46.124Z,9.75
2018-01-25T02:21:46.104Z,9.85
2018-01-25T02:22:46.092Z,9.82
2018-01-25T02:23:46.060Z,9.79
2018-01-25T02:24:46.070Z,9.94
2018-01-25T02:25:46.054Z,9.99
2018-01-25T02:26:46.028Z,9.89
2018-01-25T02:27:45.993Z,9.88
2018-01-25T02:28:45.980Z,9.85
2018-01-25T02:29:46.021Z,9.70
2018-01-25T02:30:45.964Z,9.56
2018-01-25T02:31:45.926Z,9.57
2018-01-25T02:32:45.923Z,9.60
2018-01-25T02:33:45.904Z,9.58
2018-01-25T02:34:45.890Z,9.70
2018-01-25T02:35:45.859Z,9.68
2018-01-25T02:36:45.860Z,9.78
2018-01-25T02:37:45.825Z,9.83
2018-01-25T02:38:45.825Z,9.97
2018-01-25T02:39:45.792Z,9.97
2018-01-25T02:40:45.777Z,10.03
2018-01-25T02:41:45.762Z,9.99
2018-01-25T02:42:45.735Z,9.97
2018-01-25T02:43:45.719Z,9.89
2018-01-25T02:44:45.699Z,9.96
2018-01-25T02:45:45.687Z,10.06
2018-01-25T02:46:45.672Z,10.14
2018-01-25T02:47:45.647Z,10.04
2018-01-25T02:48:45.635Z,10.01
2018-01-25T02:49:45.618Z,10.03
2018-01-25T02:50:45.625Z,10.04
2018-01-25T02:51:45.586Z,9.94
2018-01-25T02:52:45.567Z,9.88
2018-01-25T02:53:45.552Z,9.99
2018-01-25T02:54:45.541Z,9.89
2018-01-25T02:55:45.522Z,9.88
2018-01-25T02:56:45.503Z,9.86
2018-01-25T02:57:45.481Z,10.00
2018-01-25T02:58:45.469Z,10.00
2018-01-25T02:59:45.476Z,9.96
2018-01-25T03:00:45.459Z,9.88
2018-01-25T03:01:45.421Z,9.81
2018-01-25T03:02:45.399Z,9.82
2018-01-25T03:03:45.380Z,9.89
2018-01-25T03:04:45.367Z,9.85
2018-01-25T03:05:45.352Z,9.85
2018-01-25T03:06:45.338Z,10.01
2018-01-25T03:07:45.322Z,10.01
2018-01-25T03:08:45.297Z,10.00
2018-01-25T03:09:45.280Z,10.01
2018-01-25T03:10:45.287Z,9.99
2018-01-25T03:11:45.241Z,9.86
2018-01-25T03:12:45.232Z,9.86
2018-01-25T03:13:45.216Z,10.01
2018-01-25T03:14:45.203Z,10.00
2018-01-25T03:15:45.177Z,10.09
2018-01-25T03:16:45.157Z,10.06
2018-01-25T03:17:45.145Z,10.18
2018-01-25T03:18:45.129Z,10.06
2018-01-25T03:19:45.116Z,10.15
2018-01-25T03:20:45.097Z,10.12
2018-01-25T03:21:45.071Z,10.22
2018-01-25T03:22:45.064Z,10.22
2018-01-25T03:23:45.067Z,10.21
2018-01-25T03:24:45.029Z,10.24
2018-01-25T03:25:45.013Z,10.24
2018-01-25T03:26:44.997Z,10.28
2018-01-25T03:27:44.980Z,10.26
2018-01-25T03:28:44.959Z,10.34
2018-01-25T03:29:44.942Z,10.39
2018-01-25T03:30:44.930Z,10.37
2018-01-25T03:31:44.910Z,10.34
2018-01-25T03:32:44.891Z,10.39
2018-01-25T03:33:44.881Z,10.33
2018-01-25T03:34:44.862Z,10.32
2018-01-25T03:35:44.855Z,10.32
2018-01-25T03:36:44.826Z,10.40
2018-01-25T03:37:44.814Z,10.46
2018-01-25T03:38:44.820Z,10.51
2018-01-25T03:39:44.772Z,10.42
2018-01-25T03:40:44.772Z,10.44
2018-01-25T03:41:44.751Z,10.58
2018-01-25T03:42:44.727Z,10.53
2018-01-25T03:43:44.727Z,10.59
2018-01-25T03:44:44.689Z,10.58
2018-01-25T03:45:44.689Z,10.58
2018-01-25T03:46:44.660Z,10.58
2018-01-25T03:47:44.663Z,10.55
2018-01-25T03:48:44.631Z,10.59
2018-01-25T03:49:44.612Z,10.56
2018-01-25T03:50:44.602Z,10.60
2018-01-25T03:51:44.582Z,10.55
2018-01-25T03:52:44.564Z,10.56
2018-01-25T03:53:44.548Z,10.55
2018-01-25T03:54:44.529Z,10.56
2018-01-25T03:55:44.545Z,10.63
2018-01-25T03:56:44.496Z,10.68
2018-01-25T03:57:44.538Z,10.78
2018-01-25T03:58:44.467Z,10.81
2018-01-25T03:59:44.458Z,10.78
2018-01-25T04:00:44.438Z,10.77
2018-01-25T04:01:44.419Z,10.78
2018-01-25T04:02:44.410Z,10.74
2018-01-25T04:03:44.381Z,10.70
2018-01-25T04:04:44.380Z,10.63
2018-01-25T04:05:44.349Z,10.65
2018-01-25T04:06:44.342Z,10.76
2018-01-25T04:07:44.330Z,10.68
2018-01-25T04:08:44.310Z,10.78
2018-01-25T04:09:44.285Z,10.81
2018-01-25T04:10:44.276Z,10.83
2018-01-25T04:11:44.273Z,10.94
2018-01-25T04:12:44.242Z,10.89
2018-01-25T04:13:44.224Z,11.07
2018-01-25T04:14:44.205Z,10.99
2018-01-25T04:15:44.209Z,10.99
2018-01-25T04:16:44.178Z,10.94
2018-01-25T04:17:44.155Z,10.88
2018-01-25T04:18:44.143Z,10.76
2018-01-25T04:19:44.127Z,10.78
2018-01-25T04:20:44.107Z,10.78
2018-01-25T04:21:44.104Z,10.80
2018-01-25T04:22:44.088Z,10.77
2018-01-25T04:23:44.057Z,10.83
2018-01-25T04:24:44.066Z,10.86
2018-01-25T04:25:44.037Z,10.80
2018-01-25T04:26:44.012Z,10.91
2018-01-25T04:27:43.998Z,10.88
2018-01-25T04:28:43.986Z,11.02
2018-01-25T04:29:43.973Z,10.99
2018-01-25T04:30:43.951Z,10.99
2018-01-25T04:31:43.935Z,10.84
2018-01-25T04:32:43.912Z,10.83
2018-01-25T04:33:43.903Z,10.86
2018-01-25T04:34:43.884Z,10.81
2018-01-25T04:35:43.868Z,10.78
2018-01-25T04:36:43.868Z,10.74
2018-01-25T04:37:43.845Z,10.83
2018-01-25T04:38:43.821Z,10.96
2018-01-25T04:39:43.795Z,11.01
2018-01-25T04:40:43.792Z,10.99
2018-01-25T04:41:43.771Z,11.17
2018-01-25T04:42:43.759Z,11.19
2018-01-25T04:43:43.740Z,11.13
2018-01-25T04:44:43.724Z,11.16
2018-01-25T04:45:43.701Z,11.16
2018-01-25T04:46:43.692Z,11.06
2018-01-25T04:47:43.677Z,11.17
2018-01-25T04:48:43.658Z,11.13
2018-01-25T04:49:43.654Z,11.17
2018-01-25T04:50:43.625Z,11.17
2018-01-25T04:51:43.641Z,11.14
2018-01-25T04:52:43.597Z,11.24
2018-01-25T04:53:43.584Z,11.11
2018-01-25T04:54:43.559Z,11.09
2018-01-25T04:55:43.542Z,11.20
2018-01-25T04:56:43.533Z,11.25
2018-01-25T04:57:43.514Z,11.25
2018-01-25T04:58:43.494Z,11.21
2018-01-25T04:59:43.482Z,11.28
2018-01-25T05:00:43.466Z,11.35
2018-01-25T05:01:43.463Z,11.29
2018-01-25T05:02:43.444Z,11.24
2018-01-25T05:03:43.418Z,11.21
2018-01-25T05:04:43.419Z,11.19
2018-01-25T05:05:43.383Z,11.06
2018-01-25T05:06:43.377Z,11.09
2018-01-25T05:07:43.377Z,11.13
2018-01-25T05:08:43.342Z,11.16
2018-01-25T05:09:43.329Z,11.11
2018-01-25T05:10:43.304Z,11.19
2018-01-25T05:11:43.288Z,11.17
2018-01-25T05:12:43.273Z,11.07
2018-01-25T05:13:43.254Z,11.10
2018-01-25T05:14:43.247Z,11.03
2018-01-25T05:15:43.228Z,11.13
2018-01-25T05:16:43.222Z,11.07
2018-01-25T05:17:43.199Z,11.07
2018-01-25T05:18:43.177Z,11.01
2018-01-25T05:19:43.171Z,11.09
2018-01-25T05:20:43.155Z,11.21
2018-01-25T05:21:43.129Z,11.25
2018-01-25T05:22:43.116Z,11.34
2018-01-25T05:23:43.113Z,11.28
2018-01-25T05:24:43.104Z,11.21
2018-01-25T05:25:43.084Z,11.25
2018-01-25T05:26:43.060Z,11.31
2018-01-25T05:27:43.041Z,11.21
2018-01-25T05:28:43.028Z,11.21
2018-01-25T05:29:42.999Z,11.14
2018-01-25T05:30:43.005Z,11.16
2018-01-25T05:31:42.986Z,11.03
2018-01-25T05:32:42.957Z,11.16
2018-01-25T05:33:42.945Z,10.95
2018-01-25T05:34:42.929Z,11.03
2018-01-25T05:35:42.909Z,10.88
2018-01-25T05:36:42.925Z,10.86
2018-01-25T05:37:42.877Z,10.74
2018-01-25T05:38:42.869Z,10.70
2018-01-25T05:39:42.842Z,10.63
2018-01-25T05:40:42.832Z,10.63
2018-01-25T05:41:42.822Z,10.73
2018-01-25T05:42:42.797Z,10.55
2018-01-25T05:43:42.775Z,10.66
2018-01-25T05:44:42.765Z,10.63
2018-01-25T05:45:42.752Z,10.52
2018-01-25T05:46:42.733Z,10.59
2018-01-25T05:47:42.717Z,10.70
2018-01-25T05:48:42.694Z,10.59
2018-01-25T05:49:42.685Z,10.52
2018-01-25T05:50:42.664Z,10.52
2018-01-25T05:51:42.654Z,10.63
2018-01-25T05:52:42.626Z,10.52
2018-01-25T05:53:42.616Z,10.56
2018-01-25T05:54:42.600Z,10.42
2018-01-25T05:55:42.585Z,10.42
2018-01-25T05:56:42.568Z,10.32
2018-01-25T05:57:42.546Z,10.19
2018-01-25T05:58:42.537Z,10.22
2018-01-25T05:59:42.514Z,10.24
2018-01-25T06:00:42.501Z,10.21
2018-01-25T06:01:42.478Z,10.28
2018-01-25T06:02:42.462Z,10.33
2018-01-25T06:03:42.456Z,10.22
2018-01-25T06:04:42.440Z,10.30
2018-01-25T06:05:42.414Z,10.33
2018-01-25T06:06:42.395Z,10.42
2018-01-25T06:07:42.402Z,10.42
2018-01-25T06:08:42.370Z,10.34
2018-01-25T06:09:42.347Z,10.32
2018-01-25T06:10:42.331Z,10.33
2018-01-25T06:11:42.309Z,10.33
2018-01-25T06:12:42.300Z,10.36
2018-01-25T06:13:42.280Z,10.36
2018-01-25T06:14:42.261Z,10.36
2018-01-25T06:15:42.250Z,10.32
2018-01-25T06:16:42.245Z,10.33
2018-01-25T06:17:42.213Z,10.34
2018-01-25T06:18:42.190Z,10.43
2018-01-25T06:19:42.181Z,10.39
2018-01-25T06:20:42.171Z,10.40
2018-01-25T06:21:42.161Z,10.37
2018-01-25T06:22:42.133Z,10.47
2018-01-25T06:23:42.113Z,10.47
2018-01-25T06:24:42.098Z,10.47
2018-01-25T06:25:42.082Z,10.51
2018-01-25T06:26:42.113Z,10.53
2018-01-25T06:27:42.051Z,10.51
2018-01-25T06:28:42.033Z,10.52
2018-01-25T06:29:42.014Z,10.46
2018-01-25T06:30:42.014Z,10.47
2018-01-25T06:31:41.978Z,10.47
2018-01-25T06:32:41.966Z,10.63
2018-01-25T06:33:41.946Z,10.53
2018-01-25T06:34:41.929Z,10.53
2018-01-25T06:35:41.908Z,10.44
2018-01-25T06:36:41.892Z,10.56
2018-01-25T06:37:41.882Z,10.60
2018-01-25T06:38:41.861Z,10.53
2018-01-25T06:39:41.846Z,10.55
2018-01-25T06:40:41.830Z,10.44
2018-01-25T06:41:41.817Z,10.37
2018-01-25T06:42:41.797Z,10.34
2018-01-25T06:43:41.772Z,10.32
2018-01-25T06:44:41.756Z,10.39
2018-01-25T06:45:41.746Z,10.40
2018-01-25T06:46:41.732Z,10.34
2018-01-25T06:47:41.724Z,10.42
2018-01-25T06:48:41.709Z,10.39
2018-01-25T06:49:41.679Z,10.36
2018-01-25T06:50:41.667Z,10.33
2018-01-25T06:51:41.648Z,10.28
2018-01-25T06:52:41.623Z,10.37
2018-01-25T06:53:41.613Z,10.22
2018-01-25T06:54:41.639Z,10.19
2018-01-25T06:55:41.583Z,10.30
2018-01-25T06:56:41.570Z,10.19
2018-01-25T06:57:41.542Z,10.21
2018-01-25T06:58:41.536Z,10.30
2018-01-25T06:59:41.532Z,10.15
2018-01-25T07:00:41.504Z,10.18
2018-01-25T07:01:41.480Z,10.21
2018-01-25T07:02:41.470Z,10.22
2018-01-25T07:03:41.455Z,10.26
2018-01-25T07:04:41.437Z,10.17
2018-01-25T07:05:41.411Z,10.14
2018-01-25T07:06:41.404Z,10.18
2018-01-25T07:07:41.376Z,10.25
2018-01-25T07:08:41.354Z,10.25
2018-01-25T07:09:41.353Z,10.19
2018-01-25T07:10:41.331Z,10.22
2018-01-25T07:11:41.311Z,10.28
2018-01-25T07:12:41.293Z,10.28
2018-01-25T07:13:41.278Z,10.32
2018-01-25T07:14:41.265Z,10.21
2018-01-25T07:15:41.239Z,10.25
2018-01-25T07:16:41.236Z,10.21
2018-01-25T07:17:41.224Z,10.15
2018-01-25T07:18:41.201Z,10.24
2018-01-25T07:19:41.181Z,10.22
2018-01-25T07:20:41.159Z,10.26
2018-01-25T07:21:41.144Z,10.42
2018-01-25T07:22:41.124Z,10.37
2018-01-25T07:23:41.105Z,10.52
2018-01-25T07:24:41.105Z,10.47
2018-01-25T07:25:41.077Z,10.43
2018-01-25T07:26:41.057Z,10.51
2018-01-25T07:27:41.041Z,10.43
2018-01-25T07:28:41.023Z,10.52
2018-01-25T07:29:41.013Z,10.44
2018-01-25T07:30:40.990Z,10.33
2018-01-25T07:31:40.974Z,10.32
2018-01-25T07:32:40.955Z,10.34
2018-01-25T07:33:40.936Z,10.36
2018-01-25T07:34:40.936Z,10.40
2018-01-25T07:35:40.907Z,10.46
2018-01-25T07:36:40.888Z,10.42
2018-01-25T07:37:40.884Z,10.33
2018-01-25T07:38:40.855Z,10.36
2018-01-25T07:39:40.839Z,10.43
2018-01-25T07:40:40.819Z,10.44
2018-01-25T07:41:40.807Z,10.36
2018-01-25T07:42:40.800Z,10.32
2018-01-25T07:43:40.774Z,10.34
2018-01-25T07:44:40.753Z,10.36
2018-01-25T07:45:40.749Z,10.36
2018-01-25T07:46:40.724Z,10.36
2018-01-25T07:47:40.710Z,10.43
2018-01-25T07:48:40.711Z,10.36
2018-01-25T07:49:40.676Z,10.36
2018-01-25T07:50:40.673Z,10.43
2018-01-25T07:51:40.648Z,10.28
2018-01-25T07:52:40.633Z,10.33
2018-01-25T07:53:40.606Z,10.32
2018-01-25T07:54:40.597Z,10.34
2018-01-25T07:55:40.577Z,10.37
2018-01-25T07:56:40.558Z,10.33
2018-01-25T07:57:40.533Z,10.33
2018-01-25T07:58:40.536Z,10.34
2018-01-25T07:59:40.504Z,10.30
2018-01-25T08:00:40.528Z,10.36
2018-01-25T08:01:40.494Z,10.40
2018-01-25T08:02:40.455Z,10.37
2018-01-25T08:03:40.453Z,10.40
2018-01-25T08:04:40.436Z,10.47
2018-01-25T08:05:40.407Z,10.52
2018-01-25T08:06:40.397Z,10.56
2018-01-25T08:07:40.378Z,10.53
2018-01-25T08:08:40.360Z,10.65
2018-01-25T08:09:40.361Z,10.60
2018-01-25T08:10:40.330Z,10.43
2018-01-25T08:11:40.311Z,10.55
2018-01-25T08:12:40.299Z,10.51
2018-01-25T08:13:40.289Z,10.42
2018-01-25T08:14:40.260Z,10.42
2018-01-25T08:15:40.249Z,10.47
2018-01-25T08:16:40.230Z,10.51
2018-01-25T08:17:40.204Z,10.47
2018-01-25T08:18:40.195Z,10.59
2018-01-25T08:19:40.182Z,10.52
2018-01-25T08:20:40.162Z,10.53
2018-01-25T08:21:40.153Z,10.43
2018-01-25T08:22:40.128Z,10.46
2018-01-25T08:23:40.121Z,10.43
2018-01-25T08:24:40.089Z,10.42
2018-01-25T08:25:40.076Z,10.34
2018-01-25T08:26:40.065Z,10.42
2018-01-25T08:27:40.057Z,10.40
2018-01-25T08:28:40.035Z,10.42
2018-01-25T08:29:40.009Z,10.43
2018-01-25T08:30:40.017Z,10.39
2018-01-25T08:31:39.986Z,10.46
2018-01-25T08:32:39.970Z,10.43
2018-01-25T08:33:39.952Z,10.37
2018-01-25T08:34:39.929Z,10.36
2018-01-25T08:35:39.919Z,10.32
2018-01-25T08:36:39.905Z,10.37
2018-01-25T08:37:39.881Z,10.42
2018-01-25T08:38:39.874Z,10.30
2018-01-25T08:39:39.852Z,10.25
2018-01-25T08:40:39.836Z,10.19
2018-01-25T08:41:39.826Z,10.34
2018-01-25T08:42:39.814Z,10.28
2018-01-25T08:43:39.788Z,10.19
2018-01-25T08:44:39.765Z,10.21
2018-01-25T08:45:39.757Z,10.28
2018-01-25T08:46:39.731Z,10.22
2018-01-25T08:47:39.720Z,10.24
2018-01-25T08:48:39.735Z,10.25
2018-01-25T08:49:39.682Z,10.24
2018-01-25T08:50:39.665Z,10.26
2018-01-25T08:51:39.652Z,10.21
2018-01-25T08:52:39.637Z,10.19
2018-01-25T08:53:39.620Z,10.24
2018-01-25T08:54:39.608Z,10.09
2018-01-25T08:55:39.586Z,10.12
2018-01-25T08:56:39.573Z,10.04
2018-01-25T08:57:39.553Z,10.09
2018-01-25T08:58:39.547Z,10.06
2018-01-25T08:59:39.538Z,10.10
2018-01-25T09:00:39.515Z,10.00
2018-01-25T09:01:39.493Z,10.03
2018-01-25T09:02:39.472Z,10.03
2018-01-25T09:03:39.453Z,10.07
2018-01-25T09:04:39.434Z,10.03
2018-01-25T09:05:39.421Z,9.97
2018-01-25T09:06:39.408Z,9.99
2018-01-25T09:07:39.386Z,9.99
2018-01-25T09:08:39.367Z,10.01
2018-01-25T09:09:39.363Z,9.97
2018-01-25T09:10:39.331Z,10.04
2018-01-25T09:11:39.337Z,9.94
2018-01-25T09:12:39.303Z,9.97
2018-01-25T09:13:39.327Z,9.97
2018-01-25T09:14:39.271Z,9.97
2018-01-25T09:15:39.252Z,9.97
2018-01-25T09:16:39.242Z,9.96
2018-01-25T09:17:39.242Z,10.00
2018-01-25T09:18:39.207Z,9.99
2018-01-25T09:19:39.184Z,9.83
2018-01-25T09:20:39.168Z,9.83
2018-01-25T09:21:39.159Z,9.88
2018-01-25T09:22:39.136Z,9.78
2018-01-25T09:23:39.117Z,9.83
2018-01-25T09:24:39.097Z,9.79
2018-01-25T09:25:39.098Z,9.83
2018-01-25T09:26:39.063Z,9.79
2018-01-25T09:27:39.060Z,9.75
2018-01-25T09:28:39.025Z,9.75
2018-01-25T09:29:39.018Z,9.68
2018-01-25T09:30:38.997Z,9.76
2018-01-25T09:31:38.980Z,9.73
2018-01-25T09:32:38.963Z,9.68
2018-01-25T09:33:38.948Z,9.60
2018-01-25T09:34:38.938Z,9.64
2018-01-25T09:35:38.918Z,9.73
2018-01-25T09:36:38.896Z,9.64
2018-01-25T09:37:38.884Z,9.64
2018-01-25T09:38:38.869Z,9.64
2018-01-25T09:39:38.852Z,9.64
2018-01-25T09:40:38.830Z,9.61
2018-01-25T09:41:38.825Z,9.63
2018-01-25T09:42:38.804Z,9.64
2018-01-25T09:43:38.782Z,9.61
2018-01-25T09:44:38.760Z,9.64
2018-01-25T09:45:38.750Z,9.68
2018-01-25T09:46:38.733Z,9.76
2018-01-25T09:47:38.718Z,9.76
2018-01-25T09:48:38.700Z,9.64
2018-01-25T09:49:38.678Z,9.75
2018-01-25T09:50:38.661Z,9.75
2018-01-25T09:51:38.649Z,9.61
2018-01-25T09:52:38.627Z,9.70
2018-01-25T09:53:38.616Z,9.66
2018-01-25T09:54:38.597Z,9.68
2018-01-25T09:55:38.585Z,9.70
2018-01-25T09:56:38.559Z,9.73
2018-01-25T09:57:38.546Z,9.67
2018-01-25T09:58:38.530Z,9.78
2018-01-25T09:59:38.521Z,9.73
2018-01-25T10:00:38.492Z,9.81
2018-01-25T10:01:38.482Z,9.76
2018-01-25T10:02:38.461Z,9.79
2018-01-25T10:03:38.436Z,9.73
2018-01-25T10:04:38.439Z,9.79
2018-01-25T10:05:38.410Z,9.71
2018-01-25T10:06:38.391Z,9.81
2018-01-25T10:07:38.385Z,9.85
2018-01-25T10:08:38.363Z,9.78
2018-01-25T10:09:38.363Z,9.78
2018-01-25T10:10:38.318Z,9.71
2018-01-25T10:11:38.309Z,9.83
2018-01-25T10:12:38.283Z,9.78
2018-01-25T10:13:38.277Z,9.85
2018-01-25T10:14:38.261Z,9.83
2018-01-25T10:15:38.239Z,9.83
2018-01-25T10:16:38.220Z,9.83
2018-01-25T10:17:38.210Z,9.86
2018-01-25T10:18:38.188Z,9.78
2018-01-25T10:19:38.175Z,9.82
2018-01-25T10:20:38.162Z,9.78
2018-01-25T10:21:38.143Z,9.85
2018-01-25T10:22:38.134Z,9.85
2018-01-25T10:23:38.117Z,9.79
2018-01-25T10:24:38.092Z,9.82
2018-01-25T10:25:38.082Z,9.73
2018-01-25T10:26:38.078Z,9.83
2018-01-25T10:27:38.040Z,9.81
2018-01-25T10:28:38.027Z,9.86
2018-01-25T10:29:38.007Z,9.73
2018-01-25T10:30:37.992Z,9.83
2018-01-25T10:31:37.973Z,9.85
2018-01-25T10:32:37.963Z,9.73
2018-01-25T10:33:37.947Z,9.73
2018-01-25T10:34:37.928Z,9.71
2018-01-25T10:35:37.918Z,9.75
2018-01-25T10:36:37.889Z,9.81
2018-01-25T10:37:37.880Z,9.83
2018-01-25T10:38:37.869Z,9.86
2018-01-25T10:39:37.846Z,9.81
2018-01-25T10:40:37.834Z,9.88
2018-01-25T10:41:37.812Z,9.85
2018-01-25T10:42:37.808Z,9.82
2018-01-25T10:43:37.776Z,9.89
2018-01-25T10:44:37.777Z,9.81
2018-01-25T10:45:37.751Z,9.78
2018-01-25T10:46:37.732Z,9.79
2018-01-25T10:47:37.763Z,9.79
2018-01-25T10:48:37.705Z,9.82
2018-01-25T10:49:37.699Z,9.82
2018-01-25T10:50:37.670Z,9.81
2018-01-25T10:51:37.652Z,9.85
2018-01-25T10:52:37.638Z,9.82
2018-01-25T10:53:37.616Z,9.79
2018-01-25T10:54:37.606Z,9.83
2018-01-25T10:55:37.580Z,9.78
2018-01-25T10:56:37.562Z,9.88
2018-01-25T10:57:37.555Z,9.73
2018-01-25T10:58:37.533Z,9.79
2018-01-25T10:59:37.520Z,9.93
2018-01-25T11:00:37.501Z,9.82
2018-01-25T11:01:37.488Z,9.81
2018-01-25T11:02:37.465Z,9.88
2018-01-25T11:03:37.473Z,9.86
2018-01-25T11:04:37.433Z,9.94
2018-01-25T11:05:37.420Z,10.01
2018-01-25T11:06:37.401Z,10.03
2018-01-25T11:07:37.392Z,10.00
2018-01-25T11:08:37.366Z,10.12
2018-01-25T11:09:37.349Z,10.09
2018-01-25T11:10:37.337Z,10.15
2018-01-25T11:11:37.342Z,10.12
2018-01-25T11:12:37.299Z,10.12
2018-01-25T11:13:37.289Z,10.07
2018-01-25T11:14:37.278Z,10.14
2018-01-25T11:15:37.253Z,10.22
2018-01-25T11:16:37.247Z,10.09
2018-01-25T11:17:37.231Z,10.18
2018-01-25T11:18:37.227Z,10.09
2018-01-25T11:19:37.192Z,10.10
2018-01-25T11:20:37.178Z,10.17
2018-01-25T11:21:37.160Z,10.14
2018-01-25T11:22:37.144Z,10.09
2018-01-25T11:23:37.132Z,10.04
2018-01-25T11:24:37.137Z,10.04
2018-01-25T11:25:37.093Z,10.09
2018-01-25T11:26:37.103Z,10.07
2018-01-25T11:27:37.063Z,10.07
2018-01-25T11:28:37.047Z,10.07
2018-01-25T11:29:37.040Z,10.09
2018-01-25T11:30:37.028Z,10.18
2018-01-25T11:31:36.997Z,10.10
2018-01-25T11:32:36.983Z,10.09
2018-01-25T11:33:36.975Z,10.10
2018-01-25T11:34:36.954Z,10.14
2018-01-25T11:35:36.935Z,10.15
2018-01-25T11:36:36.934Z,10.15
2018-01-25T11:37:36.906Z,10.18
2018-01-25T11:38:36.890Z,10.17
2018-01-25T11:39:36.873Z,10.14
2018-01-25T11:40:36.855Z,10.12
2018-01-25T11:41:36.836Z,10.12
2018-01-25T11:42:36.823Z,10.10
2018-01-25T11:43:36.811Z,10.18
2018-01-25T11:44:36.786Z,10.12
2018-01-25T11:45:36.785Z,10.12
2018-01-25T11:46:36.762Z,10.07
2018-01-25T11:47:36.737Z,10.09
2018-01-25T11:48:36.735Z,10.06
2018-01-25T11:49:36.711Z,10.06
2018-01-25T11:50:36.728Z,10.04
2018-01-25T11:51:36.685Z,10.06
2018-01-25T11:52:36.657Z,10.15
2018-01-25T11:53:36.644Z,10.06
2018-01-25T11:54:36.647Z,10.04
2018-01-25T11:55:36.609Z,9.96
2018-01-25T11:56:36.596Z,10.03
2018-01-25T11:57:36.580Z,10.10
2018-01-25T11:58:36.573Z,10.00
2018-01-25T11:59:36.548Z,9.99
2018-01-25T12:00:36.532Z,9.91
2018-01-25T12:01:36.515Z,9.89
2018-01-25T12:02:36.497Z,9.96
2018-01-25T12:03:36.484Z,9.91
2018-01-25T12:04:36.469Z,9.89
2018-01-25T12:05:36.452Z,9.89
2018-01-25T12:06:36.433Z,9.97
2018-01-25T12:07:36.414Z,10.01
2018-01-25T12:08:36.395Z,9.99
2018-01-25T12:09:36.387Z,9.97
2018-01-25T12:10:36.363Z,9.96
2018-01-25T12:11:36.354Z,9.88
2018-01-25T12:12:36.490Z,9.86
2018-01-25T12:13:36.318Z,9.97
2018-01-25T12:14:36.300Z,9.94
2018-01-25T12:15:36.287Z,10.03
2018-01-25T12:16:36.269Z,10.07
2018-01-25T12:17:36.255Z,10.00
2018-01-25T12:18:36.236Z,9.99
2018-01-25T12:19:36.219Z,10.10
2018-01-25T12:20:36.206Z,10.01
2018-01-25T12:21:36.185Z,10.10
2018-01-25T12:22:36.169Z,10.06
2018-01-25T12:23:36.157Z,10.10
2018-01-25T12:24:36.141Z,10.10
2018-01-25T12:25:36.127Z,10.26
2018-01-25T12:26:36.108Z,10.24
2018-01-25T12:27:36.089Z,10.24
2018-01-25T12:28:36.086Z,10.21
2018-01-25T12:29:36.059Z,10.22
2018-01-25T12:30:36.049Z,10.25
2018-01-25T12:31:36.030Z,10.22
2018-01-25T12:32:36.008Z,10.24
2018-01-25T12:33:35.991Z,10.15
2018-01-25T12:34:35.981Z,10.24
2018-01-25T12:35:35.963Z,10.19
2018-01-25T12:36:35.950Z,10.24
2018-01-25T12:37:35.928Z,10.22
2018-01-25T12:38:35.916Z,10.30
2018-01-25T12:39:35.898Z,10.30
2018-01-25T12:40:35.883Z,10.26
2018-01-25T12:41:35.869Z,10.30
2018-01-25T12:42:35.868Z,10.30
2018-01-25T12:43:35.839Z,10.28
2018-01-25T12:44:35.826Z,10.22
2018-01-25T12:45:35.807Z,10.28
2018-01-25T12:46:35.791Z,10.33
2018-01-25T12:47:35.787Z,10.30
2018-01-25T12:48:35.759Z,10.36
2018-01-25T12:49:35.749Z,10.39
2018-01-25T12:50:35.743Z,10.37
2018-01-25T12:51:35.721Z,10.24
2018-01-25T12:52:35.702Z,10.30
2018-01-25T12:53:35.686Z,10.21
2018-01-25T12:54:35.665Z,10.22
2018-01-25T12:55:35.646Z,10.25
2018-01-25T12:56:35.637Z,10.22
2018-01-25T12:57:35.634Z,10.18
2018-01-25T12:58:35.608Z,10.22
2018-01-25T12:59:35.595Z,10.22
2018-01-25T13:00:35.569Z,10.19
2018-01-25T13:01:35.556Z,10.25